Archival Weather

Pemba

Pemba, Mozambique (FQPB)

Report from: Saturday, April 1, 2023 9:00 AM CAT
Current time: Wednesday, April 24, 2024 8:12 PM CAT

Current weather – Weather history – Daily summaries
Weather forecast

Temperature28.0°C (82.4°F)
Heat index32.0°C (89.6°F)
Dew point24.0°C (75.2°F)
Winds 10 kts (5.1 m/s, 11.5 mph) South-Southwest (210°)
Visibility6.2 mi. (10 km)
Clouds Scattered clouds 0 ft. (0 m)
Ceiling: Broken clouds 2,000 ft. (610 m)
Altimeter29.94 in.Hg (1014 mB)
Relative humidity79 %
Density altitude1,870 ft. (570 m)
Flight conditions Marginal Visual Meteorological Conditions
Raw dataFQPB 010700Z 21010KT 9999 BKN020 SCT/// 28/24 Q1014
An error has occurred. This application may no longer respond until reloaded. Reload 🗙